Time;durP1;ratioP1;P1;durP2;ratioP2;P2;SDS_P1;SDS_P2;PMS_P1;PMS_P2;Temp;Humidity;BMP_temperature;BMP_pressure;BME280_temperature;BME280_humidity;BME280_pressure;Samples;Min_cycle;Max_cycle;Signal;HPM_P1;HPM_P2
2021/10/18 00:00:09;;;;;;;9.50;5.38;;;7.00;91.40;;;;;;5095281;28;20063;-89
2021/10/18 00:02:35;;;;;;;7.78;4.35;;;6.90;91.60;;;;;;5096280;28;20097;-88
2021/10/18 00:05:00;;;;;;;10.82;5.38;;;6.90;91.60;;;;;;5096559;28;20455;-88
2021/10/18 00:07:26;;;;;;;8.80;4.57;;;6.80;91.70;;;;;;5095313;28;20073;-88
2021/10/18 00:09:52;;;;;;;7.95;4.10;;;6.80;91.70;;;;;;5096729;28;20139;-88
2021/10/18 00:12:17;;;;;;;9.85;5.35;;;6.70;91.80;;;;;;5095026;28;20040;-89
2021/10/18 00:14:43;;;;;;;10.45;4.90;;;6.70;91.80;;;;;;5095154;28;20063;-89
2021/10/18 00:17:09;;;;;;;8.32;3.88;;;6.70;92.00;;;;;;5094822;28;20024;-88
2021/10/18 00:19:35;;;;;;;8.82;4.97;;;6.70;92.00;;;;;;5094421;28;20489;-88
2021/10/18 00:22:00;;;;;;;8.00;4.03;;;6.60;92.00;;;;;;5094991;28;20166;-88
2021/10/18 00:24:26;;;;;;;7.40;4.75;;;6.70;92.10;;;;;;5094824;28;20024;-88
2021/10/18 00:26:52;;;;;;;7.70;5.50;;;6.70;92.10;;;;;;5094953;28;20028;-88
2021/10/18 00:29:17;;;;;;;6.28;4.05;;;6.70;92.10;;;;;;5096003;28;20024;-90
2021/10/18 00:31:43;;;;;;;9.52;4.22;;;6.80;92.10;;;;;;5094549;28;20025;-89
2021/10/18 00:34:09;;;;;;;8.18;3.95;;;6.80;92.00;;;;;;5094873;28;20035;-88
2021/10/18 00:36:35;;;;;;;5.88;3.58;;;6.80;91.80;;;;;;5094426;28;20055;-88
2021/10/18 00:39:00;;;;;;;11.63;5.30;;;6.90;91.70;;;;;;5094632;28;20078;-89
2021/10/18 00:41:26;;;;;;;6.72;4.00;;;7.00;91.40;;;;;;5095864;28;20024;-89
2021/10/18 00:43:54;;;;;;;8.85;4.18;;;7.00;91.30;;;;;;5095877;28;20024;-88
2021/10/18 00:46:22;;;;;;;6.50;3.70;;;7.20;91.20;;;;;;5095817;28;20028;-88
2021/10/18 00:48:49;;;;;;;8.05;5.07;;;7.20;91.00;;;;;;5094308;28;20024;-89
2021/10/18 00:51:16;;;;;;;5.20;3.75;;;7.30;90.70;;;;;;5094396;28;20127;-89
2021/10/18 00:53:44;;;;;;;5.55;3.58;;;7.30;90.70;;;;;;5094255;28;20505;-88
2021/10/18 00:56:11;;;;;;;8.98;4.05;;;7.40;90.50;;;;;;5095789;28;20371;-88
2021/10/18 00:58:36;;;;;;;4.85;3.38;;;7.50;90.30;;;;;;5095214;28;20081;-89
2021/10/18 01:01:02;;;;;;;9.10;3.88;;;7.50;90.00;;;;;;5094966;28;20515;-89
2021/10/18 01:03:28;;;;;;;11.25;4.90;;;7.60;89.40;;;;;;5094253;28;20031;-88
2021/10/18 01:05:54;;;;;;;5.65;3.85;;;7.70;88.50;;;;;;5094143;28;20375;-88
2021/10/18 01:08:20;;;;;;;5.95;4.18;;;7.70;88.10;;;;;;5094153;28;20128;-88
2021/10/18 01:10:46;;;;;;;6.25;3.67;;;7.80;88.10;;;;;;5093892;28;20471;-89
2021/10/18 01:13:11;;;;;;;8.32;4.03;;;7.80;87.70;;;;;;5095180;28;20024;-89
2021/10/18 01:15:37;;;;;;;10.95;3.85;;;7.80;87.70;;;;;;5093665;28;20383;-88
2021/10/18 01:18:03;;;;;;;4.72;3.63;;;7.80;86.80;;;;;;5093587;28;20078;-89
2021/10/18 01:20:35;;;;;;;10.40;5.07;;;7.80;86.60;;;;;;5093938;28;20514;-88
2021/10/18 01:23:01;;;;;;;8.68;4.28;;;7.80;86.70;;;;;;5093778;28;20028;-88
2021/10/18 01:25:27;;;;;;;5.63;4.15;;;7.80;86.70;;;;;;5093948;28;20020;-89
2021/10/18 01:27:54;;;;;;;6.80;4.03;;;7.80;86.20;;;;;;5093473;28;20097;-88
2021/10/18 01:30:21;;;;;;;7.53;4.65;;;7.70;86.70;;;;;;5093312;28;20382;-89
2021/10/18 01:32:47;;;;;;;7.50;4.43;;;7.70;86.90;;;;;;5095000;28;20048;-88
2021/10/18 01:35:13;;;;;;;7.07;3.33;;;7.60;87.10;;;;;;5093563;28;20459;-88
2021/10/18 01:37:39;;;;;;;8.30;3.97;;;7.60;87.40;;;;;;5093608;28;20077;-89
2021/10/18 01:40:10;;;;;;;7.15;4.07;;;7.60;87.60;;;;;;5093678;28;20036;-88
2021/10/18 01:42:36;;;;;;;10.23;4.13;;;7.50;87.80;;;;;;5093942;28;20066;-88
2021/10/18 01:45:04;;;;;;;7.97;4.60;;;7.50;88.00;;;;;;5093672;28;20024;-88
2021/10/18 01:47:30;;;;;;;6.85;4.30;;;7.40;88.10;;;;;;5094523;28;20027;-88
2021/10/18 01:49:58;;;;;;;9.52;5.65;;;7.40;88.30;;;;;;5094317;28;20032;-88
2021/10/18 01:52:24;;;;;;;7.40;4.57;;;7.30;88.50;;;;;;5094787;28;20024;-89
2021/10/18 01:54:50;;;;;;;6.68;3.75;;;7.30;88.80;;;;;;5093052;28;20024;-89
2021/10/18 01:57:16;;;;;;;9.73;3.97;;;7.20;89.00;;;;;;5094598;28;20062;-89
2021/10/18 01:59:42;;;;;;;6.53;3.67;;;7.20;89.30;;;;;;5094811;28;20038;-88
2021/10/18 02:02:08;;;;;;;7.07;3.97;;;7.10;89.50;;;;;;5094451;28;20118;-89
2021/10/18 02:04:33;;;;;;;6.00;3.25;;;7.10;89.70;;;;;;5095477;28;20069;-87
2021/10/18 02:06:59;;;;;;;10.25;4.90;;;7.10;89.90;;;;;;5098211;28;20107;-88
2021/10/18 02:09:25;;;;;;;7.00;4.22;;;7.10;90.00;;;;;;5093166;28;20028;-89
2021/10/18 02:11:50;;;;;;;10.45;5.85;;;7.00;90.10;;;;;;5092997;28;20028;-89
2021/10/18 02:14:17;;;;;;;9.90;4.75;;;7.00;90.20;;;;;;5094376;28;20020;-88
2021/10/18 02:16:43;;;;;;;6.65;4.50;;;7.00;90.20;;;;;;5092753;28;20111;-88
2021/10/18 02:19:08;;;;;;;7.88;4.07;;;7.00;90.30;;;;;;5093078;28;20123;-88
2021/10/18 02:21:35;;;;;;;7.50;4.30;;;7.00;90.40;;;;;;5092764;28;20024;-88
2021/10/18 02:24:01;;;;;;;7.55;3.80;;;7.00;90.70;;;;;;5092801;28;20027;-88
2021/10/18 02:26:26;;;;;;;7.28;5.00;;;6.90;90.50;;;;;;5094079;28;20364;-88
2021/10/18 02:28:52;;;;;;;8.80;4.28;;;6.90;90.50;;;;;;5093061;28;20123;-88
2021/10/18 02:31:18;;;;;;;6.80;4.25;;;6.90;90.60;;;;;;5092797;28;20467;-88
2021/10/18 02:33:44;;;;;;;7.20;4.78;;;6.90;90.60;;;;;;5094294;28;20052;-89
2021/10/18 02:36:10;;;;;;;9.23;5.07;;;6.90;90.70;;;;;;5092297;28;20390;-89
2021/10/18 02:38:35;;;;;;;7.13;4.15;;;6.90;90.70;;;;;;5092536;28;20169;-89
2021/10/18 02:41:01;;;;;;;7.15;4.18;;;6.90;90.70;;;;;;5092355;28;20073;-89
2021/10/18 02:43:27;;;;;;;8.50;4.15;;;6.90;90.70;;;;;;5092600;28;20024;-88
2021/10/18 02:45:52;;;;;;;10.43;5.80;;;6.90;90.70;;;;;;5092548;28;20545;-88
2021/10/18 02:48:18;;;;;;;7.97;4.93;;;6.90;90.70;;;;;;5093841;28;20020;-88
2021/10/18 02:50:44;;;;;;;10.07;4.32;;;6.90;90.70;;;;;;5092391;28;20395;-88
2021/10/18 02:53:10;;;;;;;6.78;4.25;;;6.90;90.70;;;;;;5092338;28;20402;-89
2021/10/18 02:55:36;;;;;;;7.13;4.10;;;6.90;90.70;;;;;;5092443;28;20028;-89
2021/10/18 02:58:02;;;;;;;9.60;5.95;;;6.90;90.70;;;;;;5092556;28;20372;-89
2021/10/18 03:00:28;;;;;;;6.25;3.95;;;6.80;90.70;;;;;;5093676;28;20063;-88
2021/10/18 03:02:53;;;;;;;8.02;5.00;;;6.80;90.70;;;;;;5092509;28;20062;-89
2021/10/18 03:05:19;;;;;;;6.45;4.60;;;6.80;90.70;;;;;;5093361;28;20073;-89
2021/10/18 03:07:50;;;;;;;9.55;4.45;;;6.90;90.70;;;;;;5092187;28;20028;-89
2021/10/18 03:10:16;;;;;;;6.07;3.75;;;6.90;90.70;;;;;;5092765;28;20055;-89
2021/10/18 03:12:41;;;;;;;6.97;3.90;;;6.90;90.70;;;;;;5092473;28;20035;-88
2021/10/18 03:15:07;;;;;;;6.88;5.00;;;6.90;90.70;;;;;;5093686;28;20016;-88
2021/10/18 03:17:33;;;;;;;9.38;4.40;;;6.80;90.80;;;;;;5091947;28;20471;-88
2021/10/18 03:19:59;;;;;;;6.00;3.35;;;6.80;90.70;;;;;;5092094;28;20063;-89
2021/10/18 03:22:24;;;;;;;6.22;3.75;;;6.80;90.80;;;;;;5094029;28;20032;-88
2021/10/18 03:24:50;;;;;;;7.13;4.55;;;6.80;90.80;;;;;;5092088;28;20024;-88
2021/10/18 03:27:16;;;;;;;5.63;4.07;;;6.80;90.80;;;;;;5092058;28;20030;-88
2021/10/18 03:29:41;;;;;;;9.63;4.82;;;6.80;90.80;;;;;;5093471;28;20489;-89
2021/10/18 03:32:07;;;;;;;8.43;4.38;;;6.80;90.80;;;;;;5091806;28;20131;-88
2021/10/18 03:34:33;;;;;;;7.65;3.83;;;6.80;90.80;;;;;;5091802;28;20035;-88
2021/10/18 03:36:58;;;;;;;7.43;5.15;;;6.80;90.80;;;;;;5093105;28;20036;-89
2021/10/18 03:39:24;;;;;;;7.45;4.45;;;6.80;90.80;;;;;;5092070;28;20024;-88
2021/10/18 03:41:50;;;;;;;7.85;4.65;;;6.80;90.80;;;;;;5092945;28;20111;-88
2021/10/18 03:44:15;;;;;;;8.05;4.50;;;6.80;90.90;;;;;;5092063;28;20032;-88
2021/10/18 03:46:41;;;;;;;7.90;4.63;;;6.80;90.90;;;;;;5092163;28;20035;-88
2021/10/18 03:49:07;;;;;;;5.70;3.58;;;6.80;90.90;;;;;;5091591;28;20074;-89
2021/10/18 03:51:32;;;;;;;9.73;4.78;;;6.80;91.00;;;;;;5091569;28;20119;-88
2021/10/18 03:53:58;;;;;;;7.97;4.95;;;6.80;91.00;;;;;;5093332;28;20035;-88
2021/10/18 03:56:24;;;;;;;8.15;4.93;;;6.80;91.00;;;;;;5094989;28;20451;-88
2021/10/18 03:58:49;;;;;;;9.15;5.03;;;6.80;91.00;;;;;;5095367;28;20032;-88
2021/10/18 04:01:15;;;;;;;12.77;4.95;;;6.80;91.00;;;;;;5095188;28;20070;-88
2021/10/18 04:03:41;;;;;;;12.95;6.20;;;6.80;91.00;;;;;;5095255;28;20416;-88
2021/10/18 04:06:06;;;;;;;13.20;4.43;;;6.80;91.10;;;;;;5096445;28;20028;-89
2021/10/18 04:08:33;;;;;;;9.30;5.30;;;6.80;91.10;;;;;;5095256;28;20031;-88
2021/10/18 04:11:00;;;;;;;9.35;5.50;;;6.80;91.10;;;;;;5095426;28;20039;-88
2021/10/18 04:13:26;;;;;;;9.35;5.82;;;6.80;91.10;;;;;;5096440;28;20020;-88
2021/10/18 04:15:52;;;;;;;8.05;5.15;;;6.80;91.00;;;;;;5094887;28;20024;-88
2021/10/18 04:18:18;;;;;;;7.78;4.43;;;6.80;91.10;;;;;;5094721;28;20536;-87
2021/10/18 04:20:44;;;;;;;9.18;5.30;;;6.80;91.10;;;;;;5094676;28;20032;-88
2021/10/18 04:23:10;;;;;;;7.20;4.18;;;6.80;91.10;;;;;;5094996;28;20039;-88
2021/10/18 04:25:36;;;;;;;13.60;5.65;;;6.80;91.10;;;;;;5095785;28;20483;-88
2021/10/18 04:28:02;;;;;;;10.93;6.13;;;6.80;91.00;;;;;;5095868;28;20092;-88
2021/10/18 04:30:27;;;;;;;11.05;5.07;;;6.80;91.00;;;;;;5096641;28;20081;-88
2021/10/18 04:32:54;;;;;;;9.20;4.72;;;6.80;91.10;;;;;;5094596;28;20147;-87
2021/10/18 04:35:20;;;;;;;8.32;5.35;;;6.80;91.10;;;;;;5093979;28;20383;-88
2021/10/18 04:37:45;;;;;;;11.48;6.43;;;6.90;91.10;;;;;;5096675;28;20039;-88
2021/10/18 04:40:12;;;;;;;10.93;6.15;;;6.90;91.00;;;;;;5094701;28;20028;-87
2021/10/18 04:42:37;;;;;;;9.25;5.65;;;6.90;90.90;;;;;;5094300;28;20024;-87
2021/10/18 04:45:05;;;;;;;12.63;5.47;;;6.90;91.00;;;;;;5094376;28;20030;-87
2021/10/18 04:47:30;;;;;;;10.25;4.68;;;6.90;91.00;;;;;;5094322;28;20024;-88
2021/10/18 04:49:56;;;;;;;8.95;5.38;;;6.90;90.90;;;;;;5094112;28;20078;-88
2021/10/18 04:52:22;;;;;;;9.82;5.10;;;6.90;90.90;;;;;;5094271;28;20035;-89
2021/10/18 04:54:48;;;;;;;5.32;3.88;;;6.90;90.90;;;;;;5093787;28;20500;-89
2021/10/18 04:57:13;;;;;;;11.50;4.65;;;7.00;91.00;;;;;;5093277;28;20114;-88
2021/10/18 04:59:39;;;;;;;10.63;5.38;;;6.90;90.90;;;;;;5093584;28;20028;-88
2021/10/18 05:02:05;;;;;;;9.27;5.38;;;7.00;90.80;;;;;;5093544;28;20024;-88
2021/10/18 05:04:31;;;;;;;11.35;5.43;;;7.00;90.70;;;;;;5093101;28;20028;-89
2021/10/18 05:06:56;;;;;;;10.35;6.32;;;7.00;90.60;;;;;;5093504;28;20021;-89
2021/10/18 05:09:22;;;;;;;7.25;4.72;;;7.00;90.60;;;;;;5093300;28;20031;-88
2021/10/18 05:11:48;;;;;;;13.80;6.35;;;7.00;90.60;;;;;;5093615;28;20063;-88
2021/10/18 05:14:13;;;;;;;10.30;4.72;;;7.00;90.50;;;;;;5092551;28;20024;-88
2021/10/18 05:16:39;;;;;;;8.77;4.85;;;7.00;90.50;;;;;;5092925;28;20024;-88
2021/10/18 05:19:05;;;;;;;8.95;5.30;;;7.10;90.60;;;;;;5094111;28;20028;-88
2021/10/18 05:21:31;;;;;;;10.52;5.53;;;7.10;90.40;;;;;;5094365;28;20032;-88
2021/10/18 05:23:57;;;;;;;14.10;6.00;;;7.10;90.40;;;;;;5093518;28;20031;-88
2021/10/18 05:26:23;;;;;;;7.50;5.20;;;7.20;90.10;;;;;;5092560;28;20110;-89
2021/10/18 05:28:48;;;;;;;13.02;6.30;;;7.20;90.10;;;;;;5092874;28;20352;-88
2021/10/18 05:31:14;;;;;;;8.20;5.13;;;7.30;90.10;;;;;;5092542;28;20089;-88
2021/10/18 05:33:40;;;;;;;8.27;5.25;;;7.30;89.90;;;;;;5094555;28;20483;-87
2021/10/18 05:36:06;;;;;;;8.80;5.68;;;7.30;89.80;;;;;;5092842;28;20454;-88
2021/10/18 05:38:31;;;;;;;8.43;5.50;;;7.40;89.80;;;;;;5093541;28;20032;-89
2021/10/18 05:40:57;;;;;;;8.20;5.30;;;7.40;89.50;;;;;;5092758;28;20024;-88
2021/10/18 05:43:23;;;;;;;10.57;6.20;;;7.40;89.00;;;;;;5093154;28;20048;-88
2021/10/18 05:45:48;;;;;;;11.60;5.88;;;7.50;88.90;;;;;;5093227;28;20024;-88
2021/10/18 05:48:15;;;;;;;11.35;5.93;;;7.50;89.10;;;;;;5093992;28;20027;-88
2021/10/18 05:50:45;;;;;;;14.85;5.78;;;7.60;88.60;;;;;;5093041;28;20127;-89
2021/10/18 05:53:12;;;;;;;12.55;6.80;;;7.60;88.50;;;;;;5093518;28;20028;-89
2021/10/18 05:55:38;;;;;;;9.18;5.13;;;7.60;88.20;;;;;;5092753;28;20039;-88
2021/10/18 05:58:06;;;;;;;9.75;5.00;;;7.60;88.10;;;;;;5092779;28;20031;-88
2021/10/18 06:00:40;;;;;;;9.13;5.68;;;7.70;88.50;;;;;;5092276;28;20039;-89
2021/10/18 06:03:07;;;;;;;13.63;6.13;;;7.70;88.30;;;;;;5092574;28;20028;-89
2021/10/18 06:05:42;;;;;;;7.57;5.72;;;7.70;88.50;;;;;;5092242;28;20036;-89
2021/10/18 06:08:08;;;;;;;12.85;5.38;;;7.80;88.10;;;;;;5092892;28;20031;-89
2021/10/18 06:10:34;;;;;;;8.05;4.78;;;7.80;87.80;;;;;;5094047;28;20028;-89
2021/10/18 06:13:00;;;;;;;12.27;5.63;;;7.90;87.80;;;;;;5092290;28;20111;-89
2021/10/18 06:15:26;;;;;;;10.63;6.25;;;8.00;87.90;;;;;;5092280;28;20625;-89
2021/10/18 06:17:52;;;;;;;11.75;5.85;;;8.10;87.60;;;;;;5092904;28;20020;-89
2021/10/18 06:20:19;;;;;;;9.38;5.78;;;8.10;87.30;;;;;;5093901;28;20028;-89
2021/10/18 06:22:46;;;;;;;11.00;6.93;;;8.10;86.80;;;;;;5095218;28;20487;-89
2021/10/18 06:25:12;;;;;;;12.45;5.93;;;8.10;86.90;;;;;;5092978;28;20067;-90
2021/10/18 06:27:38;;;;;;;11.52;6.15;;;8.20;86.30;;;;;;5092622;28;20024;-90
2021/10/18 06:30:05;;;;;;;8.40;5.28;;;8.20;85.80;;;;;;5092487;28;20036;-90
2021/10/18 06:32:34;;;;;;;11.73;6.72;;;8.20;86.10;;;;;;5093044;28;20048;-90
2021/10/18 06:34:59;;;;;;;10.85;6.45;;;8.30;85.80;;;;;;5093153;28;20486;-90
2021/10/18 06:37:25;;;;;;;12.10;5.53;;;8.40;85.60;;;;;;5092910;28;20032;-91
2021/10/18 06:39:51;;;;;;;7.80;4.45;;;8.50;86.30;;;;;;5092939;28;20664;-91
2021/10/18 06:42:16;;;;;;;8.55;5.13;;;8.60;85.50;;;;;;5110777;28;20114;-90
2021/10/18 06:44:42;;;;;;;10.73;5.95;;;8.70;84.60;;;;;;5108839;28;20463;-92
2021/10/18 06:47:09;;;;;;;12.95;6.28;;;8.80;83.30;;;;;;5092736;28;20034;-91
2021/10/18 06:49:36;;;;;;;7.28;4.75;;;8.80;82.60;;;;;;5092727;28;20024;-90
2021/10/18 06:52:02;;;;;;;9.90;5.05;;;8.80;82.10;;;;;;5093882;28;20016;-91
2021/10/18 06:54:37;;;;;;;11.27;5.05;;;8.80;82.20;;;;;;5091727;28;20064;-90
2021/10/18 06:57:03;;;;;;;7.15;4.40;;;8.80;82.90;;;;;;5114141;28;20024;-91
2021/10/18 06:59:31;;;;;;;6.22;4.10;;;8.80;82.90;;;;;;5113266;28;20035;-91
2021/10/18 07:01:59;;;;;;;6.82;4.70;;;8.80;82.90;;;;;;5113523;28;20024;-93
2021/10/18 07:04:29;;;;;;;10.10;4.60;;;8.90;82.60;;;;;;5113788;28;20027;-92
2021/10/18 07:06:55;;;;;;;9.77;4.68;;;8.90;82.70;;;;;;5115879;28;20027;-93
2021/10/18 07:09:24;;;;;;;9.63;5.07;;;8.90;82.60;;;;;;5113879;28;20032;-93
2021/10/18 07:11:51;;;;;;;11.73;5.60;;;9.00;82.40;;;;;;5119117;28;20089;-91
2021/10/18 07:14:17;;;;;;;13.77;5.40;;;9.00;82.50;;;;;;5114537;28;20104;-92
2021/10/18 07:16:44;;;;;;;11.40;5.30;;;9.10;82.70;;;;;;5097354;28;20024;-92
2021/10/18 07:19:11;;;;;;;7.82;4.95;;;9.20;82.50;;;;;;5099760;28;20092;-94
2021/10/18 07:25:27;;;;;;;9.73;5.40;;;9.40;79.60;;;;;;5096827;28;20057;-93
2021/10/18 07:27:54;;;;;;;7.88;4.53;;;9.50;78.90;;;;;;5091712;28;20055;-93
2021/10/18 07:30:20;;;;;;;8.63;4.47;;;9.50;79.50;;;;;;5096259;28;20058;-92
2021/10/18 07:32:49;;;;;;;8.52;4.55;;;9.50;79.20;;;;;;5078616;28;20052;-91
2021/10/18 07:35:18;;;;;;;7.50;4.72;;;9.60;78.70;;;;;;5097581;28;20028;-90
2021/10/18 07:37:54;;;;;;;9.35;5.20;;;9.60;79.10;;;;;;5098686;28;20055;-92
2021/10/18 07:40:20;;;;;;;4.72;3.80;;;9.70;79.20;;;;;;5097457;28;20043;-92
2021/10/18 07:42:45;;;;;;;8.68;3.55;;;9.80;78.50;;;;;;5102798;28;20023;-93
2021/10/18 07:45:18;;;;;;;9.23;4.40;;;10.00;78.80;;;;;;5096654;28;20116;-93
2021/10/18 07:47:47;;;;;;;8.35;5.07;;;10.10;75.30;;;;;;5103708;28;20039;-93
2021/10/18 07:50:17;;;;;;;7.40;4.22;;;10.20;75.20;;;;;;5114010;28;20070;-94
2021/10/18 07:52:43;;;;;;;7.40;4.57;;;10.30;76.10;;;;;;5115073;28;20107;-92
2021/10/18 07:55:14;;;;;;;7.57;4.22;;;10.30;75.60;;;;;;5117165;28;20031;-93
2021/10/18 07:57:45;;;;;;;7.05;4.63;;;10.40;73.90;;;;;;5113694;28;20081;-93
2021/10/18 08:00:14;;;;;;;5.40;4.28;;;10.40;75.20;;;;;;5117367;28;20020;-93
2021/10/18 08:02:43;;;;;;;9.38;4.70;;;10.50;72.80;;;;;;5117378;28;20059;-94
2021/10/18 08:05:15;;;;;;;8.15;4.75;;;10.50;72.30;;;;;;5116081;28;20027;-94
2021/10/18 08:07:45;;;;;;;6.18;3.67;;;10.60;73.10;;;;;;5099234;28;20028;-92
2021/10/18 08:10:14;;;;;;;10.13;5.15;;;10.70;71.10;;;;;;5087059;28;20044;-93
2021/10/18 08:12:40;;;;;;;6.57;3.75;;;10.70;71.20;;;;;;5096155;28;20028;-92
2021/10/18 08:15:08;;;;;;;11.07;4.07;;;10.80;70.90;;;;;;5112307;28;20114;-92
2021/10/18 08:17:54;;;;;;;7.32;5.03;;;10.80;69.10;;;;;;5087466;28;20024;-92
2021/10/18 08:20:21;;;;;;;9.32;4.57;;;10.80;67.90;;;;;;5099409;28;20031;-92
2021/10/18 08:22:48;;;;;;;7.85;4.53;;;10.90;70.00;;;;;;5107728;28;20024;-90
2021/10/18 08:25:14;;;;;;;5.32;3.53;;;10.90;68.50;;;;;;5116909;28;20031;-92
2021/10/18 08:27:40;;;;;;;6.25;4.55;;;11.00;69.20;;;;;;5114924;28;20369;-90
2021/10/18 08:30:07;;;;;;;7.03;3.92;;;11.00;67.80;;;;;;5072647;28;20043;-91
2021/10/18 08:32:34;;;;;;;6.32;3.88;;;11.00;68.00;;;;;;5095411;28;20044;-91
2021/10/18 08:35:00;;;;;;;6.50;3.55;;;11.10;69.20;;;;;;5111763;28;20028;-91
2021/10/18 08:40:15;;;;;;;6.80;4.20;;;11.30;69.10;;;;;;5063754;28;20039;-91
2021/10/18 08:43:28;;;;;;;5.38;3.88;;;11.50;68.20;;;;;;5095476;28;20177;-91
2021/10/18 08:45:34;;;;;;;6.75;3.92;;;11.50;67.70;;;;;;5094433;28;20119;-92
2021/10/18 08:48:00;;;;;;;5.65;4.22;;;11.50;68.40;;;;;;5094269;28;20024;-91
2021/10/18 08:50:27;;;;;;;7.68;4.65;;;11.60;68.60;;;;;;5096469;28;20063;-91
2021/10/18 08:52:54;;;;;;;10.43;5.10;;;11.60;67.00;;;;;;5094677;28;20048;-92
2021/10/18 08:55:21;;;;;;;5.85;3.78;;;11.70;67.20;;;;;;5102932;28;20028;-92
2021/10/18 08:57:47;;;;;;;6.75;3.95;;;11.80;67.10;;;;;;5104039;28;20108;-90
2021/10/18 09:00:37;;;;;;;9.05;4.70;;;11.80;67.30;;;;;;5082151;28;20035;-92
2021/10/18 09:03:28;;;;;;;6.30;4.00;;;11.90;68.00;;;;;;5073917;28;20485;-91
2021/10/18 09:06:24;;;;;;;9.02;4.53;;;12.10;67.40;;;;;;5064153;28;20031;-90
2021/10/18 09:09:08;;;;;;;6.93;3.88;;;12.20;67.20;;;;;;5116259;28;20045;-91
2021/10/18 09:11:34;;;;;;;5.55;3.90;;;12.30;66.60;;;;;;5064581;28;20142;-90
2021/10/18 09:14:02;;;;;;;8.15;4.88;;;12.30;67.00;;;;;;5106356;28;20423;-87
2021/10/18 09:16:43;;;;;;;9.13;4.53;;;12.30;65.10;;;;;;5097726;28;20031;-93
2021/10/18 09:19:14;;;;;;;5.60;4.22;;;12.30;64.90;;;;;;5097860;28;20032;-91
2021/10/18 09:22:04;;;;;;;7.93;5.20;;;12.40;65.40;;;;;;5111729;28;20492;-94
2021/10/18 09:24:34;;;;;;;9.35;5.25;;;12.40;64.80;;;;;;5064855;28;20048;-93
2021/10/18 10:51:58;;;;;;;7.97;4.68;;;11.50;68.80;;;;;;6209747;23;20020;-92
2021/10/18 10:58:57;;;;;;;8.65;4.25;;;11.40;69.20;;;;;;6062155;23;20171;-92
2021/10/18 11:05:50;;;;;;;7.13;4.55;;;11.30;69.50;;;;;;5969189;24;20008;-90
2021/10/18 11:09:18;;;;;;;7.82;4.80;;;11.30;69.40;;;;;;5992387;23;20023;-90
2021/10/18 11:11:50;;;;;;;9.13;5.00;;;11.20;69.80;;;;;;6023908;23;20014;-91
2021/10/18 11:14:29;;;;;;;8.90;5.22;;;11.20;70.00;;;;;;6041745;23;20008;-90
2021/10/18 11:17:42;;;;;;;8.02;5.25;;;11.20;70.20;;;;;;6137462;23;20006;-91
2021/10/18 11:20:52;;;;;;;9.18;4.88;;;11.20;70.20;;;;;;6171436;23;20010;-90
2021/10/18 11:23:23;;;;;;;7.57;5.25;;;11.30;70.60;;;;;;6218085;23;20016;-91
2021/10/18 11:26:23;;;;;;;6.70;3.95;;;11.30;70.60;;;;;;6237320;23;20004;-91
2021/10/18 11:29:25;;;;;;;8.60;5.03;;;11.30;70.70;;;;;;6238822;23;20004;-92
2021/10/18 11:31:55;;;;;;;6.70;4.32;;;11.50;71.00;;;;;;6251963;22;19996;-92
2021/10/18 11:34:36;;;;;;;9.85;5.32;;;11.50;70.50;;;;;;6296707;22;20034;-90
2021/10/18 11:37:27;;;;;;;6.13;4.65;;;11.60;69.90;;;;;;6294827;22;19999;-91
2021/10/18 11:43:18;;;;;;;8.38;5.20;;;11.70;69.40;;;;;;6288061;22;20015;-92
2021/10/18 11:46:07;;;;;;;8.38;6.05;;;11.80;68.80;;;;;;6265276;22;20011;-92
2021/10/18 11:55:36;;;;;;;7.45;4.35;;;11.90;67.70;;;;;;6295982;22;20038;-92
2021/10/18 11:58:44;;;;;;;;;;;;;;;;;;;;;
2021/10/18 12:01:31;;;;;;;7.13;4.80;;;12.00;67.80;;;;;;6275691;22;20441;-93
2021/10/18 12:05:00;;;;;;;;;;;;;;;;;;;;;
2021/10/18 12:07:41;;;;;;;6.07;3.80;;;12.00;67.00;;;;;;6290524;22;20084;-93
2021/10/18 12:10:43;;;;;;;7.05;4.47;;;11.90;67.90;;;;;;6291719;22;20015;-92
2021/10/18 12:13:47;;;;;;;8.02;4.97;;;12.00;68.20;;;;;;6260290;22;20004;-90
2021/10/18 12:20:01;;;;;;;;;;;;;;;;;;;;;
2021/10/18 12:26:15;;;;;;;5.65;4.32;;;12.00;67.60;;;;;;6196084;22;20035;-90
2021/10/18 12:28:59;;;;;;;8.15;5.60;;;11.90;67.60;;;;;;6288706;22;20008;-90
2021/10/18 12:32:24;;;;;;;9.98;6.40;;;11.90;67.30;;;;;;6290739;22;20023;-93
2021/10/18 12:35:29;;;;;;;9.00;5.35;;;11.90;66.50;;;;;;6291504;22;20028;-93
2021/10/18 12:38:43;;;;;;;9.57;6.13;;;11.80;66.60;;;;;;6243350;22;20012;-91
2021/10/18 12:49:04;;;;;;;8.75;5.43;;;11.80;67.80;;;;;;6279089;22;20011;-92
2021/10/18 12:52:47;;;;;;;;;;;;;;;;;;;;;
2021/10/18 12:56:24;;;;;;;;;;;;;;;;;;;;;
2021/10/18 12:59:39;;;;;;;;;;;;;;;;;;;;;
2021/10/18 13:02:39;;;;;;;9.60;6.45;;;11.80;68.50;;;;;;6266655;23;20000;-91
2021/10/18 13:15:21;;;;;;;9.35;6.63;;;11.70;68.70;;;;;;6266969;23;20046;-91
2021/10/18 13:18:29;;;;;;;11.00;6.50;;;11.70;68.70;;;;;;6260389;23;19992;-91
2021/10/18 13:24:36;;;;;;;11.68;5.18;;;11.70;68.80;;;;;;6226146;23;20023;-91
2021/10/18 13:27:08;;;;;;;8.27;5.93;;;11.70;68.80;;;;;;6225495;23;20013;-91
2021/10/18 13:29:48;;;;;;;11.45;6.18;;;11.70;68.60;;;;;;6234439;23;20012;-90
2021/10/18 13:32:37;;;;;;;9.30;6.07;;;11.70;69.20;;;;;;6230272;23;20009;-92
2021/10/18 13:35:48;;;;;;;;;;;;;;;;;;;;;
2021/10/18 13:38:51;;;;;;;9.85;5.03;;;11.80;69.20;;;;;;6239274;23;20023;-91
2021/10/18 13:41:45;;;;;;;;;;;;;;;;;;;;;
2021/10/18 13:44:38;;;;;;;10.35;5.53;;;11.70;69.00;;;;;;6238107;23;20020;-91
2021/10/18 13:50:39;;;;;;;6.68;4.82;;;11.60;68.60;;;;;;6233700;23;20008;-91
2021/10/18 13:56:33;;;;;;;12.13;5.75;;;11.50;68.90;;;;;;6198313;23;20001;-92
2021/10/18 13:59:24;;;;;;;8.88;5.55;;;11.50;69.00;;;;;;6175935;23;20005;-92
2021/10/18 14:02:24;;;;;;;14.68;6.72;;;11.50;69.00;;;;;;6229267;23;20045;-93
2021/10/18 14:15:32;;;;;;;10.55;5.85;;;11.40;69.80;;;;;;6261626;23;20074;-93
2021/10/18 14:22:06;;;;;;;10.00;6.10;;;11.30;70.10;;;;;;6229159;23;20084;-93
2021/10/18 14:24:54;;;;;;;18.30;6.80;;;11.20;70.40;;;;;;6141756;23;20002;-92
2021/10/18 14:31:06;;;;;;;14.38;7.65;;;11.10;70.80;;;;;;6234230;23;20011;-92
2021/10/18 14:34:37;;;;;;;9.27;5.97;;;11.10;71.00;;;;;;6198786;23;20009;-92
2021/10/18 14:37:11;;;;;;;11.73;5.95;;;11.00;71.20;;;;;;6191405;23;20001;-90
2021/10/18 14:53:08;;;;;;;8.45;5.07;;;10.80;72.10;;;;;;6138959;23;20014;-90
2021/10/18 15:22:20;;;;;;;10.23;6.47;;;10.70;72.60;;;;;;5639881;22;13861740;-90
2021/10/18 15:25:25;;;;;;;12.13;6.70;;;11.10;71.00;;;;;;6147194;23;20465;-88
2021/10/18 15:28:33;;;;;;;;;;;10.90;71.70;;;;;;6139526;23;20009;-92
2021/10/18 15:35:05;;;;;;;11.57;6.60;;;10.70;72.30;;;;;;6181845;23;20081;-89
2021/10/18 15:38:06;;;;;;;10.23;6.18;;;10.60;72.50;;;;;;6180064;23;20036;-91
2021/10/18 15:40:40;;;;;;;10.80;7.05;;;10.50;72.80;;;;;;6142044;23;20092;-90
2021/10/18 15:46:43;;;;;;;9.63;5.40;;;10.40;73.20;;;;;;6052253;23;20015;-91
2021/10/18 15:49:21;;;;;;;11.93;6.25;;;10.40;73.40;;;;;;6169341;23;20004;-89
2021/10/18 15:54:51;;;;;;;8.98;5.38;;;10.30;73.50;;;;;;6141398;23;20013;-88
2021/10/18 15:57:20;;;;;;;9.45;6.78;;;10.30;73.60;;;;;;6221284;23;20004;-90
2021/10/18 15:59:51;;;;;;;10.65;6.10;;;10.30;73.80;;;;;;6177546;23;20008;-89
2021/10/18 16:02:25;;;;;;;9.00;5.68;;;10.20;73.90;;;;;;6199734;23;20012;-90
2021/10/18 16:05:31;;;;;;;12.43;8.38;;;10.20;73.90;;;;;;6203102;23;20008;-89
2021/10/18 16:08:46;;;;;;;20.08;8.38;;;10.20;74.30;;;;;;6198527;23;20005;-90
2021/10/18 16:11:17;;;;;;;13.73;7.85;;;10.20;74.30;;;;;;6134298;23;19997;-90
2021/10/18 16:13:49;;;;;;;13.25;7.30;;;10.20;74.40;;;;;;6133522;23;20001;-88
2021/10/18 16:16:27;;;;;;;9.13;6.13;;;10.10;74.60;;;;;;6131124;23;20014;-90
2021/10/18 16:26:13;;;;;;;;;;;;;;;;;;;;;
2021/10/18 16:28:42;;;;;;;10.00;6.55;;;10.10;75.10;;;;;;6220749;23;20092;-90
2021/10/18 16:32:23;;;;;;;;;;;;;;;;;;;;;
2021/10/18 16:35:44;;;;;;;;;;;;;;;;;;;;;
2021/10/18 16:38:42;;;;;;;10.82;6.78;;;10.00;75.70;;;;;;6067383;23;20429;-90
2021/10/18 16:44:36;;;;;;;12.77;6.47;;;9.90;76.00;;;;;;6076090;23;20345;-88
2021/10/18 16:47:55;;;;;;;16.88;7.53;;;9.80;76.00;;;;;;6165681;23;20061;-90
2021/10/18 16:50:23;;;;;;;13.75;7.82;;;9.80;76.30;;;;;;6134523;23;20005;-91
2021/10/18 16:52:57;;;;;;;16.50;8.45;;;9.80;76.30;;;;;;6134614;23;20089;-90
2021/10/18 16:55:22;;;;;;;13.98;8.52;;;9.70;76.40;;;;;;6168244;23;20005;-91
2021/10/18 16:57:48;;;;;;;16.58;8.70;;;9.70;76.50;;;;;;6191935;23;20304;-88
2021/10/18 17:00:15;;;;;;;11.75;7.63;;;9.70;76.90;;;;;;6218039;23;20000;-90
2021/10/18 17:02:42;;;;;;;11.70;7.25;;;9.70;76.90;;;;;;6192357;23;20013;-91
2021/10/18 17:05:08;;;;;;;13.18;7.60;;;9.60;77.00;;;;;;6191173;23;20001;-89
2021/10/18 17:07:35;;;;;;;15.02;7.45;;;9.60;77.30;;;;;;6191141;23;20015;-90
2021/10/18 17:10:02;;;;;;;17.38;8.02;;;9.50;77.30;;;;;;6191818;23;19997;-90
2021/10/18 17:12:28;;;;;;;11.90;6.40;;;9.50;77.60;;;;;;6167378;23;20013;-90
2021/10/18 17:14:56;;;;;;;17.70;8.15;;;9.40;77.70;;;;;;6191529;23;20430;-90
2021/10/18 17:17:22;;;;;;;10.90;6.57;;;9.40;78.10;;;;;;6191359;23;20070;-90